Crookston, MN

5:15 AM CDT on March 26, 2017 (GMT -0500)
Crookston Municipal-Kirkwood

Weather History for KCKN - October, 2012

Change the Weather History Date:

Wednesday, October 31, 2012

  Actual Average Record
Temperature  
Mean Temperature 42 °F -  
Max Temperature 48 °F 41 °F 73 °F (1999)
Min Temperature 35 °F 27 °F 10 °F (1996)
Degree Days  
Heating Degree Days 22    
Moisture  
Dew Point 34 °F    
Average Humidity 75    
Maximum Humidity 100    
Minimum Humidity 57    
Precipitation  
Precipitation 0.00 in - - ()
Sea Level Pressure  
Sea Level Pressure 30.02 in    
Wind  
Wind Speed 9 mph (South)    
Max Wind Speed 22 mph    
Max Gust Speed 29 mph    
Visibility 10 miles    
Events      
Averages and records for this station are not official NWS values.
T = Trace of Precipitation, MM = Missing Value Source: NWS Daily Summary

Daily Weather History Graph

Daily Weather History Graph

Search for Another Location

Airport or City:

Trip Planner

Search our weather history database for the weather conditions in past years. The results will help you decide how hot, cold, wet, or windy it might be!

Date:

Astronomy

Oct. 31, 2012 Rise Set
Actual Time 8:10 AM CDT 6:09 PM CDT
Civil Twilight 7:37 AM CDT 6:41 PM CDT
Nautical Twilight 7:01 AM CDT 7:17 PM CDT
Astronomical Twilight 6:25 AM CDT 7:53 PM CDT
Moon 7:12 PM CDT (10/31) 10:00 AM CDT (10/31)
Length of Visible Light 11h 03m
Length of Day
9h 58m
Full, 97% of the Moon is Illuminated
Oct 31
Full
Nov 6
Last Quarter
Nov 13
New
Nov 20
First Quarter
Nov 28
Full

Hourly Weather History & Observations

Time (CDT) Temp. Windchill Dew Point Humidity Pressure Visibility Wind Dir Wind Speed Gust Speed Precip Events Conditions
12:15 AM 37.4 °F 31.4 °F 30.2 °F 75% 30.08 in 10.0 mi SE 8.1 mph - N/A   Overcast
12:34 AM 37.4 °F 32.1 °F 30.2 °F 75% 30.08 in 10.0 mi SE 6.9 mph - N/A   Overcast
12:54 AM 39.2 °F 34.2 °F 32.0 °F 75% 30.08 in 10.0 mi SE 6.9 mph - N/A   Overcast
1:15 AM 39.2 °F 34.2 °F 32.0 °F 75% 30.08 in 10.0 mi SE 6.9 mph - N/A   Overcast
1:34 AM 39.2 °F 34.2 °F 32.0 °F 75% 30.08 in 10.0 mi SE 6.9 mph - N/A   Overcast
1:54 AM 39.2 °F 34.2 °F 32.0 °F 75% 30.07 in 10.0 mi SE 6.9 mph - N/A   Overcast
2:15 AM 39.2 °F 34.2 °F 32.0 °F 75% 30.07 in 10.0 mi SE 6.9 mph - N/A   Overcast
2:54 AM 37.4 °F 32.8 °F 32.0 °F 81% 30.07 in 10.0 mi SSE 5.8 mph - N/A   Scattered Clouds
3:15 AM 37.4 °F 32.8 °F 32.0 °F 81% 30.07 in 10.0 mi SSE 5.8 mph - N/A   Mostly Cloudy
3:34 AM 37.4 °F 32.8 °F 32.0 °F 81% 30.07 in 10.0 mi SSE 5.8 mph - N/A   Mostly Cloudy
3:54 AM 37.4 °F 32.8 °F 32.0 °F 81% 30.05 in 10.0 mi SSE 5.8 mph - N/A   Mostly Cloudy
4:15 AM 37.4 °F 32.1 °F 33.8 °F 87% 30.04 in 10.0 mi SSE 6.9 mph - N/A   Overcast
4:34 AM 37.4 °F 32.8 °F 33.8 °F 87% 30.04 in 10.0 mi SSE 5.8 mph - N/A   Overcast
4:54 AM 37.4 °F 34.9 °F 33.8 °F 87% 30.05 in 10.0 mi South 3.5 mph - N/A   Overcast
5:14 AM 39.2 °F 35.9 °F 32.0 °F 75% 30.05 in 10.0 mi South 4.6 mph - N/A   Overcast
5:34 AM 39.2 °F 34.2 °F 32.0 °F 75% 30.04 in 10.0 mi SSE 6.9 mph - N/A   Mostly Cloudy
5:55 AM 39.2 °F 33.0 °F 32.0 °F 75% 30.04 in 10.0 mi SSE 9.2 mph - N/A   Mostly Cloudy
6:14 AM 37.4 °F 30.8 °F 32.0 °F 81% 30.04 in 10.0 mi SSE 9.2 mph - N/A   Mostly Cloudy
6:34 AM 39.2 °F 33.6 °F 32.0 °F 75% 30.04 in 10.0 mi SSE 8.1 mph - N/A   Mostly Cloudy
6:55 AM 37.4 °F 32.1 °F 32.0 °F 81% 30.03 in 10.0 mi SSE 6.9 mph - N/A   Scattered Clouds
7:14 AM 37.4 °F 32.1 °F 32.0 °F 81% 30.03 in 10.0 mi SSE 6.9 mph - N/A   Scattered Clouds
7:35 AM 37.4 °F 31.4 °F 32.0 °F 81% 30.03 in 10.0 mi SSE 8.1 mph - N/A   Mostly Cloudy
7:55 AM 37.4 °F 31.4 °F 30.2 °F 75% 30.02 in 10.0 mi SSE 8.1 mph - N/A   Mostly Cloudy
8:14 AM 37.4 °F 31.4 °F 30.2 °F 75% 30.02 in 10.0 mi SSE 8.1 mph - N/A   Overcast
8:35 AM 39.2 °F 34.2 °F 30.2 °F 70% 30.02 in 10.0 mi South 6.9 mph - N/A   Overcast
8:55 AM 39.2 °F 33.0 °F 30.2 °F 70% 30.02 in 10.0 mi South 9.2 mph - N/A   Overcast
9:14 AM 39.2 °F 32.0 °F 30.2 °F 70% 30.01 in 10.0 mi South 11.5 mph - N/A   Scattered Clouds
9:35 AM 39.2 °F 32.5 °F 30.2 °F 70% 30.01 in 10.0 mi South 10.4 mph - N/A   Clear
9:54 AM 41.0 °F 34.3 °F 32.0 °F 70% 30.00 in 10.0 mi South 11.5 mph - N/A   Clear
10:14 AM 42.8 °F 36.2 °F 32.0 °F 66% 30.01 in 10.0 mi South 12.7 mph - N/A   Clear
10:35 AM 42.8 °F 37.0 °F 33.8 °F 70% 30.00 in 10.0 mi South 10.4 mph - N/A   Clear
10:54 AM 44.6 °F 38.4 °F 33.8 °F 66% 30.00 in 10.0 mi SSW 12.7 mph - N/A   Clear
11:19 AM 44.6 °F 38.8 °F 33.8 °F 66% 30.00 in 10.0 mi SSW 11.5 mph - N/A   Clear
11:35 AM 46.4 °F 41.1 °F 32.0 °F 57% 29.99 in 10.0 mi South 11.5 mph - N/A   Clear
11:54 AM 46.4 °F 41.1 °F 32.0 °F 57% 29.99 in 10.0 mi SSW 11.5 mph - N/A   Clear
12:14 PM 46.4 °F 41.1 °F 32.0 °F 57% 29.99 in 10.0 mi SW 11.5 mph - N/A   Clear
12:35 PM 46.4 °F 41.9 °F 32.0 °F 57% 29.99 in 10.0 mi SW 9.2 mph - N/A   Clear
12:54 PM 46.4 °F 42.4 °F 33.8 °F 62% 29.98 in 10.0 mi SSW 8.1 mph - N/A   Scattered Clouds
1:20 PM 48.2 °F - 33.8 °F 58% 29.97 in 10.0 mi SSW 8.1 mph - N/A   Scattered Clouds
1:35 PM 48.2 °F - 33.8 °F 58% 29.96 in 10.0 mi South 9.2 mph - N/A   Scattered Clouds
2:14 PM 48.2 °F - 33.8 °F 58% 29.95 in 10.0 mi SSW 8.1 mph - N/A   Scattered Clouds
2:35 PM 48.2 °F - 33.8 °F 58% 29.95 in 10.0 mi SSW 9.2 mph - N/A   Scattered Clouds
2:54 PM 48.2 °F - 33.8 °F 58% 29.95 in 10.0 mi SSW 9.2 mph - N/A   Scattered Clouds
3:15 PM 48.2 °F - 33.8 °F 58% 29.95 in 10.0 mi West 8.1 mph - N/A   Mostly Cloudy
3:35 PM 48.2 °F - 35.6 °F 62% 29.96 in 10.0 mi West 6.9 mph - N/A   Overcast
3:54 PM 48.2 °F - 35.6 °F 62% 29.95 in 10.0 mi West 6.9 mph - N/A   Overcast
4:15 PM 48.2 °F - 35.6 °F 62% 29.96 in 10.0 mi WNW 5.8 mph - N/A   Overcast
4:35 PM 48.2 °F - 35.6 °F 62% 29.96 in 10.0 mi NW 6.9 mph - N/A   Mostly Cloudy
4:54 PM 46.4 °F 42.4 °F 35.6 °F 66% 29.96 in 10.0 mi NNW 8.1 mph - N/A   Mostly Cloudy
5:15 PM 46.4 °F 42.4 °F 37.4 °F 71% 29.96 in 10.0 mi NNW 8.1 mph - N/A   Light Drizzle
5:34 PM 46.4 °F 41.9 °F 35.6 °F 66% 29.97 in 10.0 mi NNW 9.2 mph - N/A   Mostly Cloudy
5:54 PM 46.4 °F 40.1 °F 37.4 °F 71% 29.97 in 10.0 mi NNW 15.0 mph - N/A   Mostly Cloudy
6:15 PM 44.6 °F 36.9 °F 37.4 °F 76% 29.99 in 10.0 mi North 18.4 mph - N/A   Mostly Cloudy
6:34 PM 44.6 °F 36.9 °F 37.4 °F 76% 29.99 in 10.0 mi North 18.4 mph - N/A   Mostly Cloudy
6:54 PM 42.8 °F 34.3 °F 37.4 °F 81% 30.00 in 10.0 mi North 19.6 mph - N/A   Mostly Cloudy
7:15 PM 42.8 °F 33.8 °F 37.4 °F 81% 30.01 in 10.0 mi North 21.9 mph 26.5 mph N/A   Mostly Cloudy
7:34 PM 41.0 °F 31.4 °F 37.4 °F 87% 30.01 in 10.0 mi North 21.9 mph 25.3 mph N/A   Scattered Clouds
7:54 PM 41.0 °F 31.6 °F 37.4 °F 87% 30.02 in 10.0 mi North 20.7 mph 26.5 mph N/A   Scattered Clouds
8:15 PM 41.0 °F 32.5 °F 37.4 °F 87% 30.03 in 10.0 mi North 17.3 mph - N/A   Mostly Cloudy
8:34 PM 41.0 °F 31.9 °F 37.4 °F 87% 30.03 in 10.0 mi North 19.6 mph 25.3 mph N/A   Scattered Clouds
8:54 PM 39.2 °F 29.3 °F 37.4 °F 93% 30.03 in 10.0 mi North 20.7 mph 26.5 mph N/A   Mostly Cloudy
9:15 PM 39.2 °F 29.6 °F 37.4 °F 93% 30.04 in 10.0 mi North 19.6 mph 25.3 mph N/A   Overcast
9:34 PM 39.2 °F 29.3 °F 37.4 °F 93% 30.05 in 10.0 mi North 20.7 mph 26.5 mph N/A   Overcast
10:15 PM 37.4 °F 27.5 °F 37.4 °F 100% 30.05 in 7.0 mi North 18.4 mph - N/A   Overcast
10:34 PM 37.4 °F 27.5 °F 35.6 °F 93% 30.06 in 10.0 mi North 18.4 mph 25.3 mph N/A   Overcast
11:14 PM 37.4 °F 26.9 °F 35.6 °F 93% 30.06 in 10.0 mi North 20.7 mph 26.5 mph N/A   Overcast
11:34 PM 37.4 °F 26.9 °F 33.8 °F 87% 30.07 in 10.0 mi North 20.7 mph 26.5 mph N/A   Overcast
11:55 PM 35.6 °F 24.5 °F 33.8 °F 93% 30.07 in 10.0 mi North 20.7 mph 28.8 mph N/A   Overcast